Time;durP1;ratioP1;P1;durP2;ratioP2;P2;SDS_P1;SDS_P2;PMS_P1;PMS_P2;Temp;Humidity;BMP_temperature;BMP_pressure;BME280_temperature;BME280_humidity;BME280_pressure;Samples;Min_cycle;Max_cycle;Signal;HPM_P1;HPM_P2
2023/12/19 00:01:08;;;;;;;;;43.00;30.25;;;;;4.35;85.52;102786.72;4998278;28;45960;-49
2023/12/19 00:03:34;;;;;;;;;41.00;32.00;;;;;4.47;85.36;102806.50;4998220;28;45215;-55
2023/12/19 00:05:59;;;;;;;;;45.00;36.00;;;;;4.47;86.08;102799.44;4998398;28;45429;-50
2023/12/19 00:08:25;;;;;;;;;44.50;31.25;;;;;4.46;86.37;102792.41;4998621;28;45236;-52
2023/12/19 00:10:50;;;;;;;;;43.50;35.00;;;;;4.42;86.72;102779.41;4997992;28;45473;-50
2023/12/19 00:13:16;;;;;;;;;40.75;29.75;;;;;4.44;86.67;102775.81;4998059;28;45375;-46
2023/12/19 00:15:42;;;;;;;;;44.25;34.75;;;;;4.42;86.51;102771.50;4998332;28;45344;-46
2023/12/19 00:18:07;;;;;;;;;34.00;29.75;;;;;4.40;86.68;102766.31;4998431;28;45436;-52
2023/12/19 00:20:32;;;;;;;;;47.50;33.75;;;;;4.39;87.31;102761.97;4998074;28;46215;-53
2023/12/19 00:22:58;;;;;;;;;48.50;31.25;;;;;4.37;87.36;102755.88;4997955;28;45400;-53
2023/12/19 00:25:23;;;;;;;;;45.25;32.00;;;;;4.38;87.85;102752.34;4998655;28;45409;-47
2023/12/19 00:27:49;;;;;;;;;17.00;16.25;;;;;4.39;87.61;102754.06;4998050;28;45421;-53
2023/12/19 00:30:15;;;;;;;;;49.00;36.00;;;;;4.41;87.26;102749.56;4997797;28;46226;-49
2023/12/19 00:32:40;;;;;;;;;37.00;28.00;;;;;4.38;87.32;102725.13;4997559;28;45374;-54
2023/12/19 00:35:06;;;;;;;;;43.00;32.00;;;;;4.42;87.44;102729.34;4997661;28;45402;-56
2023/12/19 00:37:31;;;;;;;;;53.50;39.50;;;;;4.39;87.22;102725.06;4998088;28;45401;-52
2023/12/19 00:39:56;;;;;;;;;42.00;34.25;;;;;4.41;87.87;102733.75;4997757;28;46584;-55
2023/12/19 00:42:22;;;;;;;;;53.00;40.00;;;;;4.45;87.87;102732.72;4997618;28;45485;-52
2023/12/19 00:44:47;;;;;;;;;41.25;31.75;;;;;4.47;87.61;102723.00;4997644;28;45440;-56
2023/12/19 00:47:12;;;;;;;;;40.00;36.00;;;;;4.44;88.68;102709.09;4997909;28;45361;-47
2023/12/19 00:49:38;;;;;;;;;41.75;35.00;;;;;4.44;87.84;102701.19;4997401;28;46868;-47
2023/12/19 00:52:03;;;;;;;;;49.75;36.25;;;;;4.42;88.06;102700.38;4997482;28;45381;-55
2023/12/19 00:54:29;;;;;;;;;52.75;41.25;;;;;4.43;88.57;102702.09;4997603;28;45300;-55
2023/12/19 00:56:54;;;;;;;;;53.25;37.00;;;;;4.43;88.44;102707.38;4997984;28;45732;-55
2023/12/19 00:59:20;;;;;;;;;46.50;36.50;;;;;4.41;88.90;102702.16;4997297;28;46126;-55
2023/12/19 01:01:46;;;;;;;;;42.75;29.50;;;;;4.42;88.41;102705.63;4997557;28;45362;-56
2023/12/19 01:04:12;;;;;;;;;45.50;27.50;;;;;4.45;87.78;102716.06;4996578;28;45262;-53
2023/12/19 01:06:37;;;;;;;;;42.50;32.00;;;;;4.44;88.48;102712.56;4997595;28;45453;-56
2023/12/19 01:09:04;;;;;;;;;48.75;36.50;;;;;4.46;88.29;102710.72;4997714;28;45917;-54
2023/12/19 01:11:29;;;;;;;;;38.50;33.50;;;;;4.49;87.72;102710.63;4997181;28;45342;-56
2023/12/19 01:13:55;;;;;;;;;44.50;35.00;;;;;4.46;88.45;102710.72;4997413;28;45372;-55
2023/12/19 01:16:20;;;;;;;;;37.50;25.00;;;;;4.57;88.13;102720.00;4997401;28;45478;-48
2023/12/19 01:18:46;;;;;;;;;40.00;21.00;;;;;4.45;87.80;102702.91;4996990;28;46043;-56
2023/12/19 01:21:11;;;;;;;;;44.75;33.00;;;;;4.65;87.38;102726.69;4997068;28;45457;-53
2023/12/19 01:23:37;;;;;;;;;40.50;30.75;;;;;4.71;87.84;102742.28;4997263;28;45401;-51
2023/12/19 01:26:03;;;;;;;;;36.00;29.50;;;;;4.74;87.48;102749.22;4997340;28;45424;-52
2023/12/19 01:28:28;;;;;;;;;40.25;32.00;;;;;4.77;86.95;102757.00;4996627;28;46446;-52
2023/12/19 01:30:53;;;;;;;;;40.50;29.00;;;;;4.79;86.43;102755.16;4997055;28;45505;-54
2023/12/19 01:33:18;;;;;;;;;47.50;31.00;;;;;4.80;87.24;102745.47;4997224;28;45508;-46
2023/12/19 01:35:44;;;;;;;;;34.25;28.25;;;;;4.81;87.60;102737.50;4997097;28;45479;-48
2023/12/19 01:38:09;;;;;;;;;46.75;30.75;;;;;4.87;86.91;102731.13;4996919;28;45359;-48
2023/12/19 01:40:35;;;;;;;;;29.50;19.75;;;;;4.87;86.43;102733.75;4996829;28;45339;-55
2023/12/19 01:43:01;;;;;;;;;41.50;31.75;;;;;4.83;86.34;102727.75;4996786;28;45153;-53
2023/12/19 01:45:28;;;;;;;;;45.75;35.00;;;;;4.84;86.36;102731.25;4997082;28;45335;-53
2023/12/19 01:47:53;;;;;;;;;37.75;27.75;;;;;4.78;86.75;102702.50;4996579;28;46248;-49
2023/12/19 01:50:20;;;;;;;;;32.75;27.00;;;;;4.87;87.02;102716.16;4996579;28;45465;-51
2023/12/19 01:52:54;;;;;;;;;44.50;29.75;;;;;4.85;87.00;102709.25;4996574;28;45343;-54
2023/12/19 01:55:22;;;;;;;;;43.25;25.25;;;;;4.83;87.08;102698.75;4996734;28;45425;-51
2023/12/19 01:57:48;;;;;;;;;34.00;23.75;;;;;4.83;87.47;102704.03;4996403;28;45363;-53
2023/12/19 02:00:14;;;;;;;;;35.75;28.25;;;;;4.80;87.13;102713.81;4996340;28;45408;-55
2023/12/19 02:02:40;;;;;;;;;50.75;29.50;;;;;4.65;87.18;102689.81;4996397;28;45250;-54
2023/12/19 02:05:06;;;;;;;;;35.75;30.75;;;;;4.77;87.64;102699.00;4996692;28;45538;-54
2023/12/19 02:07:32;;;;;;;;;47.50;28.75;;;;;4.78;87.62;102711.25;4996605;28;45442;-56
2023/12/19 02:09:59;;;;;;;;;38.25;29.75;;;;;4.81;87.38;102705.88;4996447;28;47075;-55
2023/12/19 02:12:25;;;;;;;;;44.75;29.50;;;;;4.80;87.68;102692.72;4996580;28;45367;-53
2023/12/19 02:14:51;;;;;;;;;40.75;28.75;;;;;4.82;87.46;102701.44;4996674;28;45455;-55
2023/12/19 02:17:17;;;;;;;;;41.25;29.25;;;;;4.83;87.50;102690.84;4996890;28;45366;-49
2023/12/19 02:19:45;;;;;;;;;37.00;25.75;;;;;4.84;87.66;102703.09;4996319;28;45409;-49
2023/12/19 02:22:11;;;;;;;;;30.50;21.25;;;;;4.90;87.77;102699.38;4996483;28;45419;-51
2023/12/19 02:24:36;;;;;;;;;47.50;29.00;;;;;4.79;88.08;102683.09;4996458;28;45359;-50
2023/12/19 02:27:03;;;;;;;;;46.50;33.25;;;;;4.88;87.68;102694.13;4996220;28;46355;-53
2023/12/19 02:29:28;;;;;;;;;34.75;29.00;;;;;4.96;87.45;102710.50;4996168;28;45429;-48
2023/12/19 02:31:53;;;;;;;;;38.75;28.25;;;;;5.00;87.16;102690.16;4996114;28;45759;-56
2023/12/19 02:34:19;;;;;;;;;45.75;34.00;;;;;4.96;87.28;102688.56;4995901;28;45514;-50
2023/12/19 02:36:44;;;;;;;;;35.00;28.00;;;;;5.05;87.34;102696.09;4995716;28;52364;-49
2023/12/19 02:39:10;;;;;;;;;38.00;31.25;;;;;5.09;87.23;102700.31;4995713;28;46024;-54
2023/12/19 02:41:35;;;;;;;;;32.50;28.00;;;;;5.11;87.19;102693.22;4996167;28;45322;-48
2023/12/19 02:44:01;;;;;;;;;38.75;33.25;;;;;5.14;86.83;102687.81;4996071;28;45259;-48
2023/12/19 02:46:26;;;;;;;;;44.25;30.00;;;;;5.13;86.75;102694.00;4995943;28;46104;-49
2023/12/19 02:48:51;;;;;;;;;39.75;22.50;;;;;5.08;86.86;102666.09;4995991;28;45402;-54
2023/12/19 02:51:19;;;;;;;;;33.75;27.25;;;;;5.20;86.74;102677.00;4996248;28;45273;-53
2023/12/19 02:53:44;;;;;;;;;36.00;31.25;;;;;5.19;86.51;102674.44;4996168;28;45525;-48
2023/12/19 02:56:09;;;;;;;;;36.00;28.00;;;;;5.20;86.77;102671.72;4995695;28;46288;-52
2023/12/19 02:58:35;;;;;;;;;31.25;25.75;;;;;5.22;87.18;102669.00;4995741;28;45514;-51
2023/12/19 03:01:00;;;;;;;;;33.00;26.50;;;;;5.23;87.26;102668.97;4995919;28;45462;-50
2023/12/19 03:03:25;;;;;;;;;28.50;21.00;;;;;5.20;86.68;102647.97;4994781;28;45454;-47
2023/12/19 03:05:50;;;;;;;;;42.50;25.25;;;;;5.26;86.63;102652.13;4995535;28;50079;-46
2023/12/19 03:08:16;;;;;;;;;34.00;28.00;;;;;5.26;86.69;102658.25;4995743;28;45261;-46
2023/12/19 03:10:41;;;;;;;;;30.50;26.75;;;;;5.30;86.57;102653.69;4995847;28;45208;-48
2023/12/19 03:13:06;;;;;;;;;32.00;24.25;;;;;5.31;86.56;102658.06;4995955;28;45402;-46
2023/12/19 03:15:32;;;;;;;;;14.00;14.00;;;;;5.37;86.17;102656.94;4995465;28;47271;-45
2023/12/19 03:17:57;;;;;;;;;29.50;24.00;;;;;5.38;86.28;102659.50;4994546;28;45294;-47
2023/12/19 03:20:22;;;;;;;;;40.75;28.00;;;;;5.35;86.22;102658.78;4995756;28;45408;-48
2023/12/19 03:22:48;;;;;;;;;30.50;24.00;;;;;5.34;86.05;102659.72;4995917;28;45342;-48
2023/12/19 03:25:13;;;;;;;;;28.25;19.25;;;;;5.40;86.40;102654.19;4995546;28;47069;-46
2023/12/19 03:27:39;;;;;;;;;33.50;25.00;;;;;5.42;85.91;102644.41;4998157;28;45855;-48
2023/12/19 03:30:05;;;;;;;;;42.25;30.50;;;;;5.42;86.29;102634.69;4998809;28;45592;-46
2023/12/19 03:32:30;;;;;;;;;24.25;18.00;;;;;5.42;86.14;102620.66;4998977;28;45296;-56
2023/12/19 03:34:55;;;;;;;;;30.75;25.00;;;;;5.40;86.56;102627.78;4998282;28;54205;-50
2023/12/19 03:37:21;;;;;;;;;24.50;24.50;;;;;5.41;86.91;102634.78;4998622;28;49746;-51
2023/12/19 03:39:46;;;;;;;;;30.00;25.25;;;;;5.45;86.10;102631.94;4998761;28;45381;-53
2023/12/19 03:42:11;;;;;;;;;37.25;28.50;;;;;5.48;86.00;102636.22;4999056;28;45422;-50
2023/12/19 03:44:36;;;;;;;;;27.75;13.75;;;;;5.48;86.15;102631.81;4998275;28;45481;-54
2023/12/19 03:47:02;;;;;;;;;32.75;26.75;;;;;5.48;86.54;102625.69;4997381;28;45385;-55
2023/12/19 03:49:27;;;;;;;;;32.25;21.00;;;;;5.45;86.48;102613.47;4998872;28;45337;-54
2023/12/19 03:51:53;;;;;;;;;35.75;25.00;;;;;5.45;86.41;102620.53;4998854;28;45259;-53
2023/12/19 03:54:18;;;;;;;;;25.25;20.50;;;;;5.50;85.74;102637.88;4998508;28;46011;-55
2023/12/19 03:56:43;;;;;;;;;31.25;19.25;;;;;5.52;85.99;102627.25;4997098;28;45636;-52
2023/12/19 03:59:10;;;;;;;;;35.00;23.25;;;;;5.38;86.17;102604.09;4998645;28;45529;-53
2023/12/19 04:01:45;;;;;;;;;32.75;23.50;;;;;5.57;86.33;102624.41;4998652;28;45243;-54
2023/12/19 04:04:12;;;;;;;;;36.75;33.00;;;;;5.59;86.43;102617.25;4998193;28;45505;-55
2023/12/19 04:06:42;;;;;;;;;30.75;22.75;;;;;5.59;85.85;102610.19;4998286;28;45410;-53
2023/12/19 04:09:08;;;;;;;;;27.25;23.00;;;;;5.63;86.02;102610.91;4998304;28;45425;-53
2023/12/19 04:11:34;;;;;;;;;29.75;23.75;;;;;5.62;85.95;102602.16;4998502;28;45332;-55
2023/12/19 04:13:59;;;;;;;;;26.50;19.75;;;;;5.65;86.00;102593.25;4997951;28;46113;-53
2023/12/19 04:16:24;;;;;;;;;37.25;22.25;;;;;5.64;86.13;102583.59;4998198;28;45391;-53
2023/12/19 04:18:49;;;;;;;;;38.50;24.00;;;;;5.66;85.97;102579.09;4997733;28;49640;-54
2023/12/19 04:21:15;;;;;;;;;33.25;26.50;;;;;5.65;85.89;102566.84;4998061;28;45286;-52
2023/12/19 04:23:40;;;;;;;;;37.50;30.25;;;;;5.67;85.78;102568.47;4997902;28;46070;-53
2023/12/19 04:26:05;;;;;;;;;32.50;25.00;;;;;5.69;86.01;102552.56;4997853;28;47826;-52
2023/12/19 04:28:31;;;;;;;;;37.25;26.50;;;;;5.68;86.03;102546.41;4998134;28;45374;-54
2023/12/19 04:30:56;;;;;;;;;33.00;25.25;;;;;5.68;86.28;102529.72;4998130;28;45302;-54
2023/12/19 04:33:21;;;;;;;;;43.75;26.00;;;;;5.68;85.73;102516.50;4997780;28;45234;-53
2023/12/19 04:35:46;;;;;;;;;21.25;16.00;;;;;5.65;86.11;102538.66;4997656;28;45328;-54
2023/12/19 04:38:12;;;;;;;;;26.00;20.50;;;;;5.63;86.04;102558.97;4996664;28;45386;-53
2023/12/19 04:40:37;;;;;;;;;33.50;25.25;;;;;5.67;86.05;102544.69;4998053;28;45193;-54
2023/12/19 04:43:03;;;;;;;;;32.25;23.50;;;;;5.70;86.20;102544.56;4997782;28;45361;-55
2023/12/19 04:45:28;;;;;;;;;28.25;24.75;;;;;5.68;86.28;102537.63;4997765;28;45473;-53
2023/12/19 04:47:53;;;;;;;;;30.00;21.00;;;;;5.70;85.95;102552.50;4997900;28;45327;-48
2023/12/19 04:50:19;;;;;;;;;29.75;20.75;;;;;5.72;86.03;102547.97;4997908;28;45388;-48
2023/12/19 04:52:44;;;;;;;;;28.75;25.00;;;;;5.71;86.03;102532.22;4997492;28;46204;-56
2023/12/19 04:55:09;;;;;;;;;28.50;23.00;;;;;5.71;86.13;102546.28;4997420;28;45942;-56
2023/12/19 04:57:35;;;;;;;;;45.50;26.75;;;;;5.76;86.07;102530.22;4997666;28;45827;-54
2023/12/19 05:00:00;;;;;;;;;33.25;20.50;;;;;5.75;86.58;102529.34;4997479;28;45452;-55
2023/12/19 05:02:26;;;;;;;;;34.00;27.75;;;;;5.79;86.19;102531.88;4997441;28;45964;-58
2023/12/19 05:04:51;;;;;;;;;28.00;24.25;;;;;5.76;86.15;102536.34;4997419;28;45420;-54
2023/12/19 05:07:16;;;;;;;;;33.00;25.25;;;;;5.72;85.75;102520.72;4997430;28;45352;-52
2023/12/19 05:09:42;;;;;;;;;35.00;23.00;;;;;5.75;86.19;102529.34;4997574;28;45403;-54
2023/12/19 05:12:07;;;;;;;;;30.00;23.75;;;;;5.78;86.52;102525.72;4997095;28;46927;-53
2023/12/19 05:14:32;;;;;;;;;32.50;25.75;;;;;5.65;86.58;102500.84;4996958;28;45382;-56
2023/12/19 05:16:59;;;;;;;;;30.00;23.50;;;;;5.74;86.62;102518.88;4997606;28;45772;-50
2023/12/19 05:19:25;;;;;;;;;21.00;18.00;;;;;5.70;86.74;102507.59;4997900;28;45590;-56
2023/12/19 05:21:50;;;;;;;;;27.50;22.75;;;;;5.75;86.80;102518.78;4997040;28;45347;-56
2023/12/19 05:24:15;;;;;;;;;27.25;22.75;;;;;5.75;86.84;102516.16;4997066;28;45347;-55
2023/12/19 05:26:40;;;;;;;;;34.75;25.25;;;;;5.79;86.81;102516.03;4997113;28;45368;-55
2023/12/19 05:29:06;;;;;;;;;29.25;23.00;;;;;5.79;86.63;102516.03;4997350;28;45388;-57
2023/12/19 05:31:31;;;;;;;;;23.25;19.75;;;;;5.79;86.78;102521.31;4996800;28;46286;-56
2023/12/19 05:33:57;;;;;;;;;27.50;21.25;;;;;5.80;86.89;102510.66;4996741;28;45423;-56
2023/12/19 05:36:22;;;;;;;;;31.50;25.75;;;;;5.82;86.44;102505.31;4997104;28;45428;-54
2023/12/19 05:38:47;;;;;;;;;36.50;25.25;;;;;5.71;86.77;102482.91;4997057;28;45243;-54
2023/12/19 05:41:14;;;;;;;;;35.00;27.00;;;;;5.85;86.76;102499.88;4996767;28;45960;-53
2023/12/19 05:43:40;;;;;;;;;34.75;24.75;;;;;5.84;86.71;102492.88;4996811;28;45521;-55
2023/12/19 05:46:06;;;;;;;;;29.75;26.00;;;;;5.85;86.52;102487.50;4996711;28;45463;-53
2023/12/19 05:48:31;;;;;;;;;29.50;23.75;;;;;5.85;86.65;102495.44;4996920;28;45456;-54
2023/12/19 05:50:56;;;;;;;;;25.00;21.75;;;;;5.87;86.79;102503.31;5011746;28;45344;-55
2023/12/19 05:53:22;;;;;;;;;28.50;23.25;;;;;5.88;87.11;102511.16;4996569;28;45408;-54
2023/12/19 05:55:47;;;;;;;;;35.00;27.25;;;;;5.81;86.59;102487.75;4997013;28;45278;-55
2023/12/19 05:58:13;;;;;;;;;30.50;26.00;;;;;5.93;86.63;102510.97;4995717;28;45441;-52
2023/12/19 06:00:39;;;;;;;;;30.75;23.50;;;;;5.95;86.47;102509.97;4996262;28;45860;-53
2023/12/19 06:03:04;;;;;;;;;28.75;21.75;;;;;5.97;86.72;102499.31;4996917;28;45280;-52
2023/12/19 06:05:29;;;;;;;;;23.00;18.00;;;;;6.06;86.04;102512.06;4996828;28;45521;-51
2023/12/19 06:07:55;;;;;;;;;24.00;20.00;;;;;6.09;86.70;102508.44;4997116;28;45700;-54
2023/12/19 06:10:20;;;;;;;;;27.00;19.50;;;;;6.11;86.24;102509.22;4996382;28;46404;-52
2023/12/19 06:12:46;;;;;;;;;31.50;22.50;;;;;6.13;86.56;102504.72;4996244;28;45473;-52
2023/12/19 06:15:13;;;;;;;;;30.50;24.75;;;;;6.10;86.63;102489.00;4996453;28;45440;-55
2023/12/19 06:17:48;;;;;;;;;26.50;19.50;;;;;6.16;86.34;102494.00;4996285;28;45434;-52
2023/12/19 06:20:13;;;;;;;;;25.25;19.75;;;;;6.17;86.29;102496.56;4996224;28;45471;-53
2023/12/19 06:22:41;;;;;;;;;36.50;25.25;;;;;6.18;86.06;102498.28;4996197;28;45402;-55
2023/12/19 06:25:07;;;;;;;;;33.75;25.75;;;;;6.20;86.12;102501.72;4996490;28;45523;-56
2023/12/19 06:27:34;;;;;;;;;34.75;25.50;;;;;6.18;86.00;102503.56;4996315;28;45385;-56
2023/12/19 06:30:00;;;;;;;;;26.00;20.25;;;;;6.23;86.23;102501.53;4996016;28;46240;-51
2023/12/19 06:32:25;;;;;;;;;18.50;12.75;;;;;6.23;85.95;102506.81;4995792;28;45393;-55
2023/12/19 06:34:51;;;;;;;;;23.50;16.75;;;;;6.24;85.87;102524.41;4995718;28;47890;-54
2023/12/19 06:37:16;;;;;;;;;24.50;20.25;;;;;6.24;86.12;102510.34;4996380;28;45313;-50
2023/12/19 06:39:42;;;;;;;;;22.50;20.50;;;;;6.24;85.84;102508.56;4996234;28;46194;-48
2023/12/19 06:42:08;;;;;;;;;31.00;20.50;;;;;6.27;86.15;102502.25;4994906;28;45722;-55
2023/12/19 06:44:33;;;;;;;;;30.25;20.00;;;;;6.28;85.78;102492.53;4995876;28;45258;-55
2023/12/19 06:46:58;;;;;;;;;33.50;20.25;;;;;6.25;86.26;102498.84;4996215;28;45479;-53
2023/12/19 06:49:26;;;;;;;;;22.50;20.50;;;;;6.23;86.10;102501.53;4995779;28;45333;-55
2023/12/19 06:51:52;;;;;;;;;25.25;20.75;;;;;6.24;85.52;102502.41;4995832;28;45358;-55
2023/12/19 06:54:17;;;;;;;;;33.75;22.25;;;;;6.24;85.71;102507.72;4995808;28;45320;-54
2023/12/19 06:56:43;;;;;;;;;19.50;16.50;;;;;6.26;85.35;102503.19;4996292;28;45468;-54
2023/12/19 06:59:09;;;;;;;;;31.25;24.75;;;;;6.24;85.38;102491.84;4995912;28;45904;-54
2023/12/19 07:01:35;;;;;;;;;27.50;22.25;;;;;6.28;85.60;102492.53;4996647;28;45600;-54
2023/12/19 07:04:00;;;;;;;;;1.00;0.00;;;;;6.20;84.78;102470.00;4999483;28;45356;-52
2023/12/19 07:06:25;;;;;;;;;23.50;20.50;;;;;6.24;84.97;102482.13;4999557;28;45482;-53
2023/12/19 07:08:51;;;;;;;;;23.25;16.00;;;;;6.13;85.29;102465.94;4999183;28;46136;-53
2023/12/19 07:11:17;;;;;;;;;30.25;20.75;;;;;6.27;85.21;102482.91;4999381;28;45335;-50
2023/12/19 07:13:43;;;;;;;;;24.75;20.25;;;;;6.24;84.84;102468.06;4999312;28;45292;-53
2023/12/19 07:16:13;;;;;;;;;24.00;20.00;;;;;6.23;85.22;102464.53;4999304;28;45377;-53
2023/12/19 07:18:40;;;;;;;;;23.75;17.50;;;;;6.19;85.11;102465.66;4998938;28;47307;-54
2023/12/19 07:21:05;;;;;;;;;23.75;16.00;;;;;6.17;85.24;102456.94;4998820;28;45275;-51
2023/12/19 07:23:31;;;;;;;;;25.50;20.75;;;;;6.21;85.17;102455.84;4998973;28;45245;-52
2023/12/19 07:25:56;;;;;;;;;30.25;24.50;;;;;6.04;84.92;102412.72;4999187;28;45388;-53
2023/12/19 07:28:22;;;;;;;;;29.00;22.50;;;;;6.18;84.80;102436.66;4998911;28;50552;-53
2023/12/19 07:30:47;;;;;;;;;29.75;22.50;;;;;6.16;85.44;102430.59;4998819;28;45429;-55
2023/12/19 07:33:12;;;;;;;;;23.00;19.75;;;;;6.17;85.17;102438.44;4998689;28;45364;-54
2023/12/19 07:35:37;;;;;;;;;22.75;19.75;;;;;6.18;85.14;102436.66;4998989;28;45474;-54
2023/12/19 07:38:03;;;;;;;;;27.75;19.25;;;;;6.17;84.51;102432.31;4998846;28;46101;-53
2023/12/19 07:40:28;;;;;;;;;24.25;17.00;;;;;6.16;84.92;102425.31;4998876;28;45365;-51
2023/12/19 07:42:54;;;;;;;;;32.25;23.25;;;;;6.07;85.74;102421.34;4998951;28;45314;-53
2023/12/19 07:45:19;;;;;;;;;22.25;21.75;;;;;6.15;85.22;102437.66;4999184;28;45439;-54
2023/12/19 07:47:45;;;;;;;;;32.25;24.25;;;;;6.14;85.12;102429.81;4998685;28;47131;-53
2023/12/19 07:50:10;;;;;;;;;24.00;20.50;;;;;6.19;85.56;102430.41;4998607;28;45316;-48
2023/12/19 07:52:36;;;;;;;;;33.50;20.50;;;;;6.23;85.13;102434.63;4998706;28;45465;-53
2023/12/19 07:55:04;;;;;;;;;29.50;20.00;;;;;6.22;85.42;102431.13;4998955;28;45397;-53
2023/12/19 07:57:29;;;;;;;;;27.25;22.75;;;;;6.25;85.46;102433.63;4998775;28;45362;-51
2023/12/19 07:59:54;;;;;;;;;29.75;24.50;;;;;6.29;85.10;102430.84;4998218;28;45405;-54
2023/12/19 08:02:20;;;;;;;;;29.25;23.75;;;;;6.30;85.31;102417.53;4998177;28;47117;-51
2023/12/19 08:04:45;;;;;;;;;33.00;22.75;;;;;6.33;84.76;102411.25;4998505;28;45287;-51
2023/12/19 08:07:10;;;;;;;;;27.00;19.75;;;;;6.30;85.19;102406.97;4998229;28;45274;-53
2023/12/19 08:09:36;;;;;;;;;22.25;21.75;;;;;6.34;84.43;102412.94;4998159;28;45421;-54
2023/12/19 08:12:01;;;;;;;;;27.25;17.75;;;;;6.30;85.00;102400.81;4997835;28;45320;-49
2023/12/19 08:14:27;;;;;;;;;30.00;22.50;;;;;6.32;85.10;102407.75;4997017;28;45461;-46
2023/12/19 08:16:52;;;;;;;;;28.25;20.50;;;;;6.35;85.14;102407.56;4997736;28;46037;-45
2023/12/19 08:19:18;;;;;;;;;24.00;18.00;;;;;6.37;85.10;102396.94;4997746;28;45470;-52
2023/12/19 08:21:51;;;;;;;;;19.25;18.25;;;;;6.35;84.75;102399.63;4998371;28;45184;-48
2023/12/19 08:24:16;;;;;;;;;26.75;22.00;;;;;6.37;84.98;102400.44;4998396;28;45499;-48
2023/12/19 08:26:47;;;;;;;;;24.75;19.00;;;;;6.43;84.83;102401.91;4997859;28;45455;-48
2023/12/19 08:29:12;;;;;;;;;33.25;20.00;;;;;6.40;84.17;102391.47;4998150;28;45225;-52
2023/12/19 08:31:37;;;;;;;;;12.75;12.75;;;;;6.40;85.02;102404.69;4998224;28;45394;-47
2023/12/19 08:34:03;;;;;;;;;29.50;19.75;;;;;6.45;84.84;102415.91;4998361;28;45481;-48
2023/12/19 08:36:29;;;;;;;;;22.00;17.25;;;;;6.44;84.88;102408.88;4998436;28;46341;-51
2023/12/19 08:38:54;;;;;;;;;36.75;22.25;;;;;6.45;84.11;102419.41;4998487;28;45309;-48
2023/12/19 08:41:20;;;;;;;;;21.50;17.50;;;;;6.48;84.33;102427.16;4997916;28;45374;-50
2023/12/19 08:43:45;;;;;;;;;29.00;21.75;;;;;6.48;84.18;102413.06;4998081;28;45440;-46
2023/12/19 08:46:10;;;;;;;;;24.75;18.00;;;;;6.51;84.73;102415.56;4997594;28;49873;-49
2023/12/19 08:48:36;;;;;;;;;28.50;16.25;;;;;6.39;84.63;102398.56;4997457;28;45288;-47
2023/12/19 08:51:02;;;;;;;;;20.75;16.25;;;;;6.53;84.40;102413.72;4997807;28;45350;-53
2023/12/19 08:53:28;;;;;;;;;28.25;22.00;;;;;6.50;84.22;102414.72;4998036;28;45450;-50
2023/12/19 08:55:53;;;;;;;;;26.50;21.00;;;;;6.50;84.04;102427.94;4997501;28;46351;-47
2023/12/19 08:58:18;;;;;;;;;28.00;23.50;;;;;6.53;83.93;102419.00;4997392;28;45795;-47
2023/12/19 09:00:44;;;;;;;;;30.00;22.75;;;;;6.56;84.00;102408.25;4997916;28;45362;-46
2023/12/19 09:03:09;;;;;;;;;25.75;15.75;;;;;6.58;83.96;102406.41;4997719;28;45395;-48
2023/12/19 09:05:34;;;;;;;;;22.50;15.00;;;;;6.57;84.03;102409.94;4997369;28;46039;-48
2023/12/19 09:07:59;;;;;;;;;20.25;16.25;;;;;6.57;84.61;102407.31;4997723;28;45450;-47
2023/12/19 09:10:25;;;;;;;;;21.50;19.50;;;;;6.58;84.02;102408.19;4997602;28;45520;-46
2023/12/19 09:12:50;;;;;;;;;22.50;21.00;;;;;6.57;84.25;102390.59;4997396;28;45305;-46
2023/12/19 09:15:15;;;;;;;;;25.50;17.25;;;;;6.59;83.84;102380.81;4997447;28;46207;-48
2023/12/19 09:17:41;;;;;;;;;22.25;22.25;;;;;6.59;84.24;102379.00;4997371;28;45422;-48
2023/12/19 09:20:07;;;;;;;;;19.25;17.00;;;;;6.63;84.32;102364.69;4997310;28;45418;-51
2023/12/19 09:22:34;;;;;;;;;19.25;17.75;;;;;6.66;83.70;102367.19;4997469;28;45369;-50
2023/12/19 09:25:00;;;;;;;;;22.75;20.00;;;;;6.61;84.31;102341.91;4996300;28;47207;-47
2023/12/19 09:27:26;;;;;;;;;23.75;17.00;;;;;6.75;83.45;102361.41;4997085;28;45465;-46
2023/12/19 09:29:51;;;;;;;;;20.25;16.00;;;;;6.78;83.43;102362.16;4997206;28;45364;-48
2023/12/19 09:32:18;;;;;;;;;25.75;20.50;;;;;6.79;83.67;102366.53;4997150;28;45494;-48
2023/12/19 09:34:44;;;;;;;;;18.25;16.00;;;;;6.72;83.19;102358.06;4996556;28;46380;-46
2023/12/19 09:37:09;;;;;;;;;18.25;17.00;;;;;6.80;83.65;102365.59;4995580;28;45329;-51
2023/12/19 09:39:34;;;;;;;;;27.25;18.25;;;;;6.82;83.33;102374.28;4996860;28;46026;-50
2023/12/19 09:42:00;;;;;;;;;19.75;12.75;;;;;6.81;83.43;102381.38;4997464;28;45439;-46
2023/12/19 09:44:26;;;;;;;;;21.00;16.75;;;;;6.83;83.65;102386.59;4995673;28;47195;-48
2023/12/19 09:46:52;;;;;;;;;23.00;15.25;;;;;6.85;83.31;102379.41;4996794;28;45460;-47
2023/12/19 09:49:21;;;;;;;;;24.50;19.50;;;;;6.80;83.46;102366.44;4997249;28;45388;-47
2023/12/19 09:51:53;;;;;;;;;17.75;15.25;;;;;6.86;83.28;102366.09;4997298;28;45338;-47
2023/12/19 09:54:22;;;;;;;;;22.00;18.50;;;;;6.80;83.69;102336.50;4996848;28;46061;-51
2023/12/19 09:56:49;;;;;;;;;25.25;19.75;;;;;6.91;83.79;102364.06;4996711;28;45309;-46
2023/12/19 09:59:18;;;;;;;;;21.25;17.50;;;;;6.94;82.83;102366.53;4996545;28;45470;-47
2023/12/19 10:01:43;;;;;;;;;21.50;14.75;;;;;6.98;82.81;102372.53;4996770;28;45494;-46
2023/12/19 10:04:13;;;;;;;;;23.75;16.50;;;;;7.04;83.11;102371.31;4996244;28;46136;-49
2023/12/19 10:06:55;;;;;;;;;25.25;20.00;;;;;7.13;83.34;102370.84;4996596;28;45454;-48
2023/12/19 10:09:22;;;;;;;;;12.75;12.75;;;;;7.17;82.65;102349.41;4995469;28;45288;-50
2023/12/19 10:12:02;;;;;;;;;22.25;20.00;;;;;7.21;82.22;102345.66;4996694;28;45332;-47
2023/12/19 10:14:28;;;;;;;;;21.50;14.75;;;;;7.22;82.61;102342.06;4996331;28;46269;-52
2023/12/19 10:16:54;;;;;;;;;27.75;15.50;;;;;7.20;82.03;102345.72;4996371;28;47056;-48
2023/12/19 10:19:30;;;;;;;;;23.00;18.25;;;;;7.19;82.50;102346.66;4996349;28;45433;-49
2023/12/19 10:22:07;;;;;;;;;19.50;15.50;;;;;7.20;83.14;102343.91;4996533;28;45316;-47
2023/12/19 10:24:33;;;;;;;;;28.75;23.50;;;;;7.20;82.21;102340.44;4996224;28;45385;-48
2023/12/19 10:27:01;;;;;;;;;27.75;19.25;;;;;7.21;82.81;102331.56;4996549;28;45322;-47
2023/12/19 10:29:28;;;;;;;;;23.75;19.25;;;;;7.23;82.36;102325.22;4996490;28;45472;-46
2023/12/19 10:31:54;;;;;;;;;22.75;16.25;;;;;7.27;82.31;102309.19;4996191;28;45532;-50
2023/12/19 10:34:22;;;;;;;;;19.50;15.50;;;;;7.23;82.56;102298.75;4995621;28;46180;-45
2023/12/19 10:36:48;;;;;;;;;23.75;17.25;;;;;7.35;82.55;102305.16;4997516;28;45312;-48
2023/12/19 10:39:16;;;;;;;;;28.25;17.75;;;;;7.28;82.22;102281.78;4999877;28;45451;-46
2023/12/19 10:41:42;;;;;;;;;21.50;15.75;;;;;7.46;81.93;102286.03;4999731;28;45409;-46
2023/12/19 10:44:08;;;;;;;;;17.75;14.25;;;;;7.53;82.77;102278.56;4999310;28;46497;-48
2023/12/19 10:46:34;;;;;;;;;21.75;17.75;;;;;7.56;82.33;102279.25;4999584;28;45380;-44
2023/12/19 10:49:01;;;;;;;;;21.00;17.25;;;;;7.53;80.95;102274.13;4999566;28;45505;-50
2023/12/19 10:51:32;;;;;;;;;17.50;15.50;;;;;7.56;81.23;102279.25;4999928;28;45312;-52
2023/12/19 10:54:05;;;;;;;;;23.25;15.50;;;;;7.59;81.20;102280.88;4999257;28;46371;-51
2023/12/19 10:56:38;;;;;;;;;22.00;17.00;;;;;7.56;81.83;102278.38;4999215;28;45453;-46
2023/12/19 10:59:07;;;;;;;;;18.00;15.50;;;;;7.56;81.84;102279.25;4999365;28;45196;-45
2023/12/19 11:01:42;;;;;;;;;29.50;17.75;;;;;7.58;81.24;102269.41;4999547;28;45399;-48
2023/12/19 11:04:17;;;;;;;;;19.75;18.00;;;;;7.49;81.09;102267.28;4998907;28;46956;-47
2023/12/19 11:06:48;;;;;;;;;27.75;18.00;;;;;7.50;82.61;102272.50;4999050;28;45361;-46
2023/12/19 11:09:20;;;;;;;;;15.50;15.50;;;;;7.51;81.77;102262.78;4999347;28;45329;-45
2023/12/19 11:11:46;;;;;;;;;17.75;16.75;;;;;7.45;81.54;102261.31;4999478;28;45307;-46